Peace River Airport
CYPE : now visible

Airfield :











YOU CAN JOIN US ON...

 
LOGIN :

Register | Disclaimer

   EN    FR    IT 

 









Legend :    VFR   Marginal VFR   IFR   Intensive IFR   Very Intensive IFR
Visi :
Ceiling :
>= 8 km
>= 3000ft
5 to 8 km
1000 to 3000 ft
1500m to 5 km
500 to 1000 ft
800 to 1500m
200 to 500 ft
< 800m
< 200 ft
Symbols :   Thunderstorms  Fog  Heavy snow  Heavy precipitations  Wind > 20 kt






- Airport Elevation : 1873 ft
- IATA code : YPE


CYPE - Peace River

CURRENT METAR :
  • 151400Z 20003KT 15SM OVC071 M17/M19 A2977 RMK AC8 RIME ON INDICATOR SLP133

EXPIRED METARs :
  • 151300Z 20004KT 15SM BKN073 M18/M20 A2977 RMK AC7 RIME ON INDICATOR SLP135
  • 151200Z VRB02KT 15SM BKN073 M20/M23 A2978 RMK AC7 SLP140

TAF TAF CYPE
Valid from the 15 at 13:00 until the 16 at 01:00 UTC


151238Z 1513/1601 VRB03KT P6SM BKN070
TEMPO 1513/1520 5SM -SN BR SCT008 BKN020
FM152000 27008KT P6SM BKN040 RMK NXT FCST BY 151900Z



MET'MAP, your aeronautical weather chart ! - Copyright ORBIFLY December 2007 - Disclaimer

ORBIFLY MET'MAP TEAM :

Programming & Development : Alexandra Zaïnal
Concept & original design : Baudouin d'Aumeries
Assistance for programming : Marc-Olivier Méhu
Technical & hardware support : Manuel Goepfert

Contact : metmap@orbifly.com




SOURCES & CREDITS :

   NOAA       Earth
Advisory